createdAt,value
2023-04-23T00:03:46.195Z,7.47
2023-04-23T00:07:47.969Z,7.40
2023-04-23T00:11:50.798Z,7.95
2023-04-23T00:15:55.088Z,10.90
2023-04-23T00:19:55.834Z,9.83
2023-04-23T00:23:56.244Z,9.00
2023-04-23T00:27:56.902Z,11.50
2023-04-23T00:32:00.865Z,7.00
2023-04-23T00:36:01.456Z,9.37
2023-04-23T00:40:02.660Z,7.97
2023-04-23T00:44:04.353Z,7.20
2023-04-23T00:48:09.129Z,6.43
2023-04-23T00:52:10.177Z,5.27
2023-04-23T00:56:11.739Z,7.27
2023-04-23T01:00:15.818Z,7.10
2023-04-23T01:04:23.094Z,5.47
2023-04-23T01:08:27.948Z,4.90
2023-04-23T01:12:29.496Z,6.77
2023-04-23T01:16:30.361Z,7.73
2023-04-23T01:20:34.223Z,4.97
2023-04-23T01:24:38.626Z,4.93
2023-04-23T01:28:40.543Z,6.00
2023-04-23T01:32:43.232Z,6.53
2023-04-23T01:36:46.847Z,5.07
2023-04-23T01:40:50.328Z,5.50
2023-04-23T01:44:51.470Z,7.27
2023-04-23T01:48:52.261Z,7.37
2023-04-23T01:52:54.307Z,5.47
2023-04-23T01:56:59.187Z,8.37
2023-04-23T02:01:00.575Z,6.30
2023-04-23T02:05:04.940Z,6.83
2023-04-23T02:09:05.924Z,8.17
2023-04-23T02:13:09.161Z,8.80
2023-04-23T02:17:09.760Z,8.77
2023-04-23T02:21:11.483Z,6.10
2023-04-23T02:25:15.922Z,7.97
2023-04-23T02:29:19.328Z,8.43
2023-04-23T02:33:20.324Z,9.33
2023-04-23T02:37:21.124Z,9.00
2023-04-23T02:41:21.872Z,7.60
2023-04-23T02:45:25.570Z,6.70
2023-04-23T02:49:26.445Z,7.30
2023-04-23T02:53:26.938Z,8.00
2023-04-23T02:57:27.823Z,7.53
2023-04-23T03:01:33.385Z,9.20
2023-04-23T03:05:34.475Z,8.87
2023-04-23T03:09:35.192Z,9.97
2023-04-23T03:13:36.055Z,7.40
2023-04-23T03:17:39.658Z,9.30
2023-04-23T03:21:41.059Z,7.90
2023-04-23T03:25:42.584Z,7.90
2023-04-23T03:29:43.370Z,6.73
2023-04-23T03:33:47.066Z,6.90
2023-04-23T03:37:51.082Z,6.07
2023-04-23T03:41:54.653Z,8.63
2023-04-23T03:46:00.255Z,5.93
2023-04-23T03:50:05.813Z,5.03
2023-04-23T03:54:07.070Z,4.90
2023-04-23T03:58:10.107Z,6.53
2023-04-23T04:02:21.939Z,4.03
2023-04-23T04:06:29.302Z,5.17
2023-04-23T04:10:29.795Z,7.03
2023-04-23T04:14:31.548Z,5.60
2023-04-23T04:18:32.429Z,4.43
2023-04-23T04:22:35.905Z,6.90
2023-04-23T04:26:37.617Z,3.83
2023-04-23T04:30:38.508Z,5.77
2023-04-23T04:34:39.596Z,4.70
2023-04-23T04:38:44.151Z,6.20
2023-04-23T04:42:46.904Z,4.77
2023-04-23T04:46:48.555Z,4.83
2023-04-23T04:50:49.981Z,6.60
2023-04-23T04:54:52.905Z,5.13
2023-04-23T04:58:53.566Z,4.87
2023-04-23T05:02:54.636Z,3.23
2023-04-23T05:06:55.678Z,6.77
2023-04-23T05:10:59.828Z,5.20
2023-04-23T05:15:00.682Z,6.63
2023-04-23T05:19:01.393Z,7.57
2023-04-23T05:23:03.288Z,4.30
2023-04-23T05:27:06.928Z,6.80
2023-04-23T05:31:07.309Z,4.10
2023-04-23T05:35:09.383Z,7.63
2023-04-23T05:39:09.753Z,5.57
2023-04-23T05:43:13.409Z,5.43
2023-04-23T05:47:18.082Z,5.87
2023-04-23T05:51:18.687Z,5.97
2023-04-23T05:55:20.726Z,6.10
2023-04-23T05:59:23.991Z,4.47
2023-04-23T06:03:25.310Z,5.50
2023-04-23T06:07:26.147Z,4.67
2023-04-23T06:11:27.065Z,5.50
2023-04-23T06:15:30.657Z,5.93
2023-04-23T06:19:31.455Z,7.00
2023-04-23T06:23:32.031Z,7.27
2023-04-23T06:27:32.871Z,5.93
2023-04-23T06:31:42.113Z,8.47
2023-04-23T06:35:43.210Z,8.30
2023-04-23T06:39:43.848Z,6.53
2023-04-23T06:43:46.315Z,8.87
2023-04-23T06:47:59.010Z,6.37
2023-04-23T06:51:59.513Z,9.07
2023-04-23T06:56:00.201Z,9.40
2023-04-23T07:00:00.815Z,9.50
2023-04-23T07:04:10.786Z,11.07
2023-04-23T07:08:15.401Z,6.70
2023-04-23T07:12:15.867Z,7.63
2023-04-23T07:16:16.558Z,6.77
2023-04-23T07:20:20.138Z,9.27
2023-04-23T07:24:20.935Z,7.60
2023-04-23T07:28:23.217Z,5.43
2023-04-23T07:32:28.235Z,7.90
2023-04-23T07:36:33.293Z,7.17
2023-04-23T07:40:33.954Z,5.67
2023-04-23T07:44:34.651Z,7.03
2023-04-23T07:48:35.235Z,6.57
2023-04-23T07:52:38.254Z,6.87
2023-04-23T07:56:38.711Z,5.07
2023-04-23T08:00:39.944Z,6.20
2023-04-23T08:04:40.642Z,7.73
2023-04-23T08:08:45.351Z,7.10
2023-04-23T08:12:46.539Z,5.40
2023-04-23T08:16:47.544Z,4.30
2023-04-23T08:20:48.151Z,8.47
2023-04-23T08:24:51.326Z,11.03
2023-04-23T08:28:52.334Z,8.07
2023-04-23T08:32:54.119Z,5.00
2023-04-23T08:36:55.007Z,5.38
2023-04-23T08:41:04.470Z,4.03
2023-04-23T08:45:07.919Z,4.18
2023-04-23T08:49:11.486Z,5.95
2023-04-23T08:53:13.920Z,4.30
2023-04-23T08:57:20.009Z,4.20
2023-04-23T09:01:21.892Z,5.10
2023-04-23T09:05:22.453Z,9.57
2023-04-23T09:09:26.940Z,3.70
2023-04-23T09:13:30.296Z,3.25
2023-04-23T09:17:33.148Z,3.63
2023-04-23T09:21:33.728Z,6.32
2023-04-23T09:25:34.503Z,5.40
2023-04-23T09:29:38.556Z,3.60
2023-04-23T09:33:40.054Z,2.38
2023-04-23T09:37:45.230Z,3.53
2023-04-23T09:41:46.566Z,4.07
2023-04-23T09:45:57.240Z,2.90
2023-04-23T09:49:57.859Z,3.80
2023-04-23T09:53:58.264Z,5.78
2023-04-23T09:57:58.757Z,3.38
2023-04-23T10:02:07.497Z,2.70
2023-04-23T10:06:17.253Z,5.68
2023-04-23T10:10:26.781Z,4.18
2023-04-23T10:14:29.677Z,4.00
2023-04-23T10:18:37.922Z,4.55
2023-04-23T10:22:42.212Z,3.22
2023-04-23T10:26:47.815Z,2.72
2023-04-23T10:30:49.372Z,4.85
2023-04-23T10:34:52.678Z,3.05
2023-04-23T10:38:58.265Z,4.18
2023-04-23T10:43:01.015Z,5.72
2023-04-23T10:47:04.814Z,4.03
2023-04-23T10:51:31.857Z,4.13
2023-04-23T10:55:38.066Z,2.60
2023-04-23T10:59:43.390Z,3.20
2023-04-23T11:03:49.616Z,3.40
2023-04-23T11:08:19.333Z,1.83
2023-04-23T11:12:36.106Z,1.92
2023-04-23T11:16:36.776Z,3.08
2023-04-23T11:20:39.072Z,3.75
2023-04-23T11:24:47.205Z,2.50
2023-04-23T11:28:54.124Z,3.20
2023-04-23T11:33:00.400Z,2.17
2023-04-23T11:37:06.322Z,2.70
2023-04-23T11:41:10.034Z,3.40
2023-04-23T11:45:19.092Z,3.47
2023-04-23T11:49:20.409Z,2.40
2023-04-23T11:53:21.881Z,2.97
2023-04-23T11:57:25.499Z,3.17
2023-04-23T12:01:26.191Z,1.88
2023-04-23T12:05:31.489Z,1.83
2023-04-23T12:09:32.734Z,1.70
2023-04-23T12:13:36.960Z,4.03
2023-04-23T12:17:37.944Z,3.22
2023-04-23T12:21:50.278Z,3.05
2023-04-23T12:25:51.078Z,3.42
2023-04-23T12:30:05.721Z,1.88
2023-04-23T12:34:10.369Z,1.27
2023-04-23T12:38:25.851Z,4.38
2023-04-23T12:42:27.278Z,2.47
2023-04-23T12:46:31.863Z,1.30
2023-04-23T12:50:33.792Z,1.10
2023-04-23T12:54:37.816Z,1.00
2023-04-23T12:58:38.997Z,3.92
2023-04-23T13:02:42.283Z,1.98
2023-04-23T13:06:45.168Z,2.60
2023-04-23T13:10:45.783Z,2.00
2023-04-23T13:14:46.493Z,2.00
2023-04-23T13:18:51.761Z,2.35
2023-04-23T13:22:52.472Z,3.05
2023-04-23T13:26:53.108Z,1.67
2023-04-23T13:30:53.845Z,2.83
2023-04-23T13:34:57.188Z,3.63
2023-04-23T13:38:59.756Z,12.68
2023-04-23T13:43:00.163Z,2.83
2023-04-23T13:47:01.667Z,1.95
2023-04-23T13:51:13.488Z,2.33
2023-04-23T13:55:22.781Z,2.70
2023-04-23T13:59:23.307Z,1.70
2023-04-23T14:03:23.844Z,1.73
2023-04-23T14:07:28.614Z,1.92
2023-04-23T14:11:29.510Z,3.10
2023-04-23T14:15:30.937Z,1.30
2023-04-23T14:19:34.764Z,1.95
2023-04-23T14:23:59.684Z,1.50
2023-04-23T14:28:07.852Z,1.98
2023-04-23T14:32:08.979Z,2.08
2023-04-23T14:36:11.625Z,2.17
2023-04-23T14:40:20.227Z,2.13
2023-04-23T14:44:23.468Z,1.70
2023-04-23T14:48:24.256Z,1.70
2023-04-23T14:52:27.216Z,1.50
2023-04-23T14:56:30.354Z,3.75
2023-04-23T15:00:32.892Z,2.13
2023-04-23T15:04:34.114Z,3.08
2023-04-23T15:08:35.782Z,2.97
2023-04-23T15:13:06.525Z,2.88
2023-04-23T15:17:06.929Z,1.67
2023-04-23T15:21:07.475Z,2.45
2023-04-23T15:25:09.469Z,1.92
2023-04-23T15:29:14.101Z,3.38
2023-04-23T15:33:15.445Z,1.75
2023-04-23T15:37:21.439Z,2.63
2023-04-23T15:41:21.826Z,1.67
2023-04-23T15:45:27.436Z,1.75
2023-04-23T15:49:27.874Z,1.40
2023-04-23T15:53:30.559Z,3.13
2023-04-23T15:57:33.537Z,3.45
2023-04-23T16:01:38.088Z,2.80
2023-04-23T16:05:38.916Z,1.73
2023-04-23T16:09:39.786Z,1.65
2023-04-23T16:13:41.784Z,2.20
2023-04-23T16:17:45.545Z,2.13
2023-04-23T16:21:46.252Z,2.95
2023-04-23T16:25:47.607Z,4.13
2023-04-23T16:29:51.130Z,7.40
2023-04-23T16:33:54.628Z,3.50
2023-04-23T16:37:55.972Z,8.57
2023-04-23T16:41:58.561Z,5.15
2023-04-23T16:46:02.493Z,7.40
2023-04-23T16:50:06.145Z,5.65
2023-04-23T16:54:07.249Z,3.88
2023-04-23T16:58:14.886Z,6.40
2023-04-23T17:02:15.548Z,10.18
2023-04-23T17:06:29.955Z,26.05
2023-04-23T17:10:30.404Z,5.97
2023-04-23T17:14:31.134Z,2.97
2023-04-23T17:18:34.656Z,3.10
2023-04-23T17:22:38.533Z,3.63
2023-04-23T17:26:39.969Z,3.50
2023-04-23T17:30:41.157Z,3.70
2023-04-23T17:34:43.460Z,5.55
2023-04-23T17:38:49.485Z,5.55
2023-04-23T17:42:50.083Z,4.50
2023-04-23T17:46:52.214Z,5.60
2023-04-23T17:50:54.754Z,4.53
2023-04-23T17:54:57.829Z,4.57
2023-04-23T17:58:59.321Z,6.82
2023-04-23T18:03:01.065Z,5.30
2023-04-23T18:07:01.907Z,5.93
2023-04-23T18:11:05.994Z,5.90
2023-04-23T18:15:12.586Z,6.15
2023-04-23T18:19:14.683Z,5.03
2023-04-23T18:23:15.826Z,4.30
2023-04-23T18:27:19.888Z,4.85
2023-04-23T18:31:21.846Z,4.32
2023-04-23T18:35:22.654Z,4.88
2023-04-23T18:39:23.310Z,9.52
2023-04-23T18:43:28.643Z,5.15
2023-04-23T18:47:37.214Z,4.18
2023-04-23T18:51:47.217Z,4.00
2023-04-23T18:55:50.863Z,3.88
2023-04-23T18:59:54.369Z,5.57
2023-04-23T19:03:56.851Z,3.72
2023-04-23T19:07:57.425Z,5.60
2023-04-23T19:12:01.744Z,8.68
2023-04-23T19:16:04.929Z,9.35
2023-04-23T19:20:05.746Z,24.85
2023-04-23T19:24:07.324Z,29.08
2023-04-23T19:28:08.504Z,20.73
2023-04-23T19:32:11.587Z,27.48
2023-04-23T19:36:15.164Z,11.60
2023-04-23T19:40:16.544Z,29.20
2023-04-23T19:44:18.462Z,10.95
2023-04-23T19:48:23.242Z,6.13
2023-04-23T19:52:30.062Z,2.58
2023-04-23T19:56:33.816Z,5.60
2023-04-23T20:00:37.867Z,5.07
2023-04-23T20:04:43.282Z,1.70
2023-04-23T20:09:04.786Z,2.93
2023-04-23T20:13:05.764Z,3.60
2023-04-23T20:17:06.421Z,4.23
2023-04-23T20:21:09.950Z,4.07
2023-04-23T20:25:13.531Z,2.40
2023-04-23T20:29:14.314Z,3.07
2023-04-23T20:33:16.129Z,2.30
2023-04-23T20:37:24.116Z,1.63
2023-04-23T20:41:27.112Z,2.80
2023-04-23T20:45:27.493Z,1.33
2023-04-23T20:49:29.058Z,1.87
2023-04-23T20:53:33.315Z,3.67
2023-04-23T20:57:34.921Z,5.50
2023-04-23T21:01:35.601Z,4.00
2023-04-23T21:05:38.776Z,4.97
2023-04-23T21:09:42.256Z,3.97
2023-04-23T21:13:46.408Z,2.60
2023-04-23T21:17:48.424Z,3.63
2023-04-23T21:21:49.144Z,6.07
2023-04-23T21:25:52.812Z,3.93
2023-04-23T21:29:54.838Z,3.60
2023-04-23T21:33:56.847Z,3.27
2023-04-23T21:37:57.793Z,2.07
2023-04-23T21:42:05.204Z,3.63
2023-04-23T21:46:07.346Z,3.33
2023-04-23T21:50:11.215Z,2.67
2023-04-23T21:54:12.358Z,2.87
2023-04-23T21:58:17.976Z,1.73
2023-04-23T22:02:20.344Z,4.70
2023-04-23T22:06:21.455Z,3.40
2023-04-23T22:10:24.292Z,6.17
2023-04-23T22:14:27.698Z,3.00
2023-04-23T22:18:31.471Z,3.63
2023-04-23T22:22:32.103Z,2.53
2023-04-23T22:26:36.340Z,4.77
2023-04-23T22:30:40.402Z,3.07
2023-04-23T22:34:42.066Z,2.10
2023-04-23T22:38:43.599Z,3.63
2023-04-23T22:42:49.230Z,5.97
2023-04-23T22:46:52.613Z,2.67
2023-04-23T22:50:54.326Z,1.93
2023-04-23T22:54:55.245Z,2.90
2023-04-23T22:58:55.878Z,4.07
2023-04-23T23:02:59.535Z,2.17
2023-04-23T23:06:59.893Z,2.63
2023-04-23T23:11:00.211Z,2.90
2023-04-23T23:15:02.116Z,2.30
2023-04-23T23:19:09.749Z,1.90
2023-04-23T23:23:10.359Z,4.03
2023-04-23T23:27:11.505Z,2.67
2023-04-23T23:31:13.068Z,2.83
2023-04-23T23:35:16.617Z,4.70
2023-04-23T23:39:19.317Z,2.00
2023-04-23T23:43:19.844Z,4.27
2023-04-23T23:47:22.231Z,3.50
2023-04-23T23:51:26.234Z,3.37
2023-04-23T23:55:26.942Z,3.97
2023-04-23T23:59:28.199Z,4.43
